Stena Suede — ZCEF5 — position and weather

sailwx.info

Track history (hours):
 
Tides and Currents Weather Stations Pressure Air Temp Water Temp Dewpoint Dewpoint Depression Visibility Wind Speed Wind Dir Waves Ship Positions

Stena Suede

Last reported at 2014-Sep-04 15:32 UTC. Time now 2014-Sep-18 15:47 UTC.
Position N 48°38' W 006°56'.
Warning: this ship's position is 14 days out of date.

Length 274 m; draft 15.7 m.

Type: Tanker. MMSI: 310622000.

Date/timePositionNaut miles runAvg speedWind from/ knotsBaromVisibWave heightAir tempDewpointWater temp
2014-Sep-04 15:32N 48°38' W 006°56'24311.6
2014-Sep-03 18:34N 50°23' W 001°19'1614.2
2014-Sep-03 17:27N 50°21' W 000°55'1213.2
2014-Sep-03 16:34N 50°25' W 000°37'1312.6
2014-Sep-03 15:33N 50°28' W 000°18'1212.3
2014-Sep-03 14:34N 50°32' E 000°01'1212.1
2014-Sep-03 13:34N 50°35' E 000°19'1312.6
2014-Sep-03 12:34N 50°38' E 000°38'1413.7
2014-Sep-03 11:33N 50°45' E 000°56'2114.2
2014-Sep-03 10:06N 50°58' E 001°22'713.8
2014-Sep-03 09:33N 51°03' E 001°30'1313.1
2014-Sep-03 08:33N 51°13' E 001°45'1212.2
2014-Sep-03 07:33N 51°24' E 001°54'1212.0
2014-Sep-03 06:33N 51°33' E 002°06'1212.1
2014-Sep-03 05:33N 51°42' E 002°19'8013.2
2014-Sep-02 23:31N 53°01' E 002°39'1612.7
2014-Sep-02 22:15N 53°17' E 002°45'9610.8
2014-Sep-02 13:21N 54°19' E 000°42'1012.8
2014-Sep-02 12:33N 54°23' E 000°26'1313.1
2014-Sep-02 11:33N 54°28' E 000°05'1313.4
2014-Sep-02 10:33N 54°34' W 000°17'1413.7
2014-Sep-02 09:33N 54°39' W 000°39'1313.0
2014-Sep-02 08:33N 54°42' W 001°00'7 7.0
2014-Sep-02 07:32N 54°37' W 001°10'0 0.0
2014-Sep-02 06:32N 54°37' W 001°10'0 0.0
2014-Sep-02 05:32N 54°37' W 001°10'0 0.0
2014-Sep-01 16:32N 54°37' W 001°10'0 0.0
2014-Sep-01 15:32N 54°37' W 001°10'0 0.0
2014-Sep-01 14:32N 54°37' W 001°10'0 0.0
2014-Sep-01 13:23N 54°37' W 001°10'0 0.0
2014-Sep-01 12:20N 54°37' W 001°10'0 0.0
2014-Sep-01 11:26N 54°37' W 001°10'0 0.0
2014-Sep-01 10:23N 54°37' W 001°10'0 0.0
2014-Sep-01 09:26N 54°37' W 001°10'0 0.0
2014-Sep-01 08:29N 54°37' W 001°10'0 0.0
2014-Sep-01 07:29N 54°37' W 001°10'0 0.0
2014-Sep-01 06:17N 54°37' W 001°10'1 0.1
2014-Aug-31 18:21N 54°38' W 001°09'6 7.4
2014-Aug-31 17:33N 54°43' W 001°03'2 1.9
2014-Aug-31 16:33N 54°42' W 000°60'0 0.0
2014-Aug-31 15:33N 54°42' W 000°60'0 0.0
2014-Aug-31 14:33N 54°42' W 000°60'0 0.0
2014-Aug-31 13:30N 54°42' W 000°60'0 0.0
2014-Aug-31 12:32N 54°42' W 000°60'0 0.2
2014-Aug-31 11:32N 54°42' W 000°59'4 3.9
2014-Aug-31 10:32N 54°41' W 000°53'8 8.3
2014-Aug-31 09:34N 54°39' W 000°39'8 7.7
2014-Aug-31 08:34N 54°37' W 000°26'9 9.2
2014-Aug-31 07:33N 54°33' W 000°13'10 9.5
2014-Aug-31 06:33N 54°29' E 000°03'9 8.9
2014-Aug-31 05:34N 54°26' E 000°17'8 8.4
2014-Aug-31 04:34N 54°22' E 000°30'175 7.9
2014-Aug-30 06:18N 51°43' E 002°29'912.2
2014-Aug-30 05:33N 51°36' E 002°20'1313.5
2014-Aug-30 04:34N 51°25' E 002°08'1211.6
2014-Aug-30 03:33N 51°13' E 002°02'1414.2
2014-Aug-30 02:33N 51°05' E 001°44'1514.6
2014-Aug-30 01:33N 50°53' E 001°29'3812.0
2014-Aug-29 22:21N 50°27' E 000°45'1512.5
2014-Aug-29 21:08N 50°23' E 000°22'  
Track history (hours):
 
Tides and Currents Weather Stations Pressure Air Temp Water Temp Dewpoint Dewpoint Depression Visibility Wind Speed Wind Dir Waves Ship Positions

Stena Suede

Last reported at 2014-Sep-04 15:32 UTC. Time now 2014-Sep-18 15:47 UTC.
Position N 48°38' W 006°56'.
Warning: this ship's position is 14 days out of date.

Length 274 m; draft 15.7 m.

Type: Tanker. MMSI: 310622000.

Date/timePositionNaut miles runAvg speedWind from/ knotsBaromVisibWave heightAir tempDewpointWater temp
2014-Sep-04 15:32N 48°38' W 006°56'24311.6
2014-Sep-03 18:34N 50°23' W 001°19'1614.2
2014-Sep-03 17:27N 50°21' W 000°55'1213.2
2014-Sep-03 16:34N 50°25' W 000°37'1312.6
2014-Sep-03 15:33N 50°28' W 000°18'1212.3
2014-Sep-03 14:34N 50°32' E 000°01'1212.1
2014-Sep-03 13:34N 50°35' E 000°19'1312.6
2014-Sep-03 12:34N 50°38' E 000°38'1413.7
2014-Sep-03 11:33N 50°45' E 000°56'2114.2
2014-Sep-03 10:06N 50°58' E 001°22'713.8
2014-Sep-03 09:33N 51°03' E 001°30'1313.1
2014-Sep-03 08:33N 51°13' E 001°45'1212.2
2014-Sep-03 07:33N 51°24' E 001°54'1212.0
2014-Sep-03 06:33N 51°33' E 002°06'1212.1
2014-Sep-03 05:33N 51°42' E 002°19'8013.2
2014-Sep-02 23:31N 53°01' E 002°39'1612.7
2014-Sep-02 22:15N 53°17' E 002°45'9610.8
2014-Sep-02 13:21N 54°19' E 000°42'1012.8
2014-Sep-02 12:33N 54°23' E 000°26'1313.1
2014-Sep-02 11:33N 54°28' E 000°05'1313.4
2014-Sep-02 10:33N 54°34' W 000°17'1413.7
2014-Sep-02 09:33N 54°39' W 000°39'1313.0
2014-Sep-02 08:33N 54°42' W 001°00'7 7.0
2014-Sep-02 07:32N 54°37' W 001°10'0 0.0
2014-Sep-02 06:32N 54°37' W 001°10'0 0.0
2014-Sep-02 05:32N 54°37' W 001°10'0 0.0
2014-Sep-01 16:32N 54°37' W 001°10'0 0.0
2014-Sep-01 15:32N 54°37' W 001°10'0 0.0
2014-Sep-01 14:32N 54°37' W 001°10'0 0.0
2014-Sep-01 13:23N 54°37' W 001°10'0 0.0
2014-Sep-01 12:20N 54°37' W 001°10'0 0.0
2014-Sep-01 11:26N 54°37' W 001°10'0 0.0
2014-Sep-01 10:23N 54°37' W 001°10'0 0.0
2014-Sep-01 09:26N 54°37' W 001°10'0 0.0
2014-Sep-01 08:29N 54°37' W 001°10'0 0.0
2014-Sep-01 07:29N 54°37' W 001°10'0 0.0
2014-Sep-01 06:17N 54°37' W 001°10'1 0.1
2014-Aug-31 18:21N 54°38' W 001°09'6 7.4
2014-Aug-31 17:33N 54°43' W 001°03'2 1.9
2014-Aug-31 16:33N 54°42' W 000°60'0 0.0
2014-Aug-31 15:33N 54°42' W 000°60'0 0.0
2014-Aug-31 14:33N 54°42' W 000°60'0 0.0
2014-Aug-31 13:30N 54°42' W 000°60'0 0.0
2014-Aug-31 12:32N 54°42' W 000°60'0 0.2
2014-Aug-31 11:32N 54°42' W 000°59'4 3.9
2014-Aug-31 10:32N 54°41' W 000°53'8 8.3
2014-Aug-31 09:34N 54°39' W 000°39'8 7.7
2014-Aug-31 08:34N 54°37' W 000°26'9 9.2
2014-Aug-31 07:33N 54°33' W 000°13'10 9.5
2014-Aug-31 06:33N 54°29' E 000°03'9 8.9
2014-Aug-31 05:34N 54°26' E 000°17'8 8.4
2014-Aug-31 04:34N 54°22' E 000°30'175 7.9
2014-Aug-30 06:18N 51°43' E 002°29'912.2
2014-Aug-30 05:33N 51°36' E 002°20'1313.5
2014-Aug-30 04:34N 51°25' E 002°08'1211.6
2014-Aug-30 03:33N 51°13' E 002°02'1414.2
2014-Aug-30 02:33N 51°05' E 001°44'1514.6
2014-Aug-30 01:33N 50°53' E 001°29'3812.0
2014-Aug-29 22:21N 50°27' E 000°45'1512.5
2014-Aug-29 21:08N 50°23' E 000°22'  

Dump ship's entire track history